Time;durP1;ratioP1;P1;durP2;ratioP2;P2;SDS_P1;SDS_P2;PMS_P1;PMS_P2;Temp;Humidity;BMP_temperature;BMP_pressure;BME280_temperature;BME280_humidity;BME280_pressure;Samples;Min_cycle;Max_cycle;Signal;HPM_P1;HPM_P2
2024/02/19 00:01:42;;;;;;;7.70;2.80;;;10.20;99.90;;;;;;5027444;28;20181;-71
2024/02/19 00:04:08;;;;;;;3.43;2.50;;;10.20;99.90;;;;;;5030446;28;20934;-68
2024/02/19 00:06:34;;;;;;;9.03;3.37;;;10.20;99.90;;;;;;5028059;28;20201;-72
2024/02/19 00:09:01;;;;;;;5.10;2.43;;;10.20;99.90;;;;;;5028870;28;20193;-69
2024/02/19 00:11:27;;;;;;;5.90;2.10;;;10.20;99.90;;;;;;5028629;28;20438;-68
2024/02/19 00:13:53;;;;;;;7.23;2.80;;;10.20;99.90;;;;;;5029060;28;20424;-70
2024/02/19 00:16:19;;;;;;;7.37;3.57;;;10.20;99.90;;;;;;5028019;28;20514;-65
2024/02/19 00:18:45;;;;;;;7.40;2.77;;;10.20;99.90;;;;;;5028820;28;20420;-68
2024/02/19 00:21:11;;;;;;;6.80;3.20;;;10.20;99.90;;;;;;5028540;28;20236;-66
2024/02/19 00:23:36;;;;;;;5.93;3.03;;;10.10;99.90;;;;;;5027818;28;20429;-70
2024/02/19 00:26:03;;;;;;;5.90;2.90;;;10.10;99.90;;;;;;5026793;28;20182;-71
2024/02/19 00:28:29;;;;;;;5.23;2.47;;;10.10;99.90;;;;;;5027514;28;20194;-70
2024/02/19 00:30:55;;;;;;;5.63;2.57;;;10.10;99.90;;;;;;5027111;28;20467;-67
2024/02/19 00:33:23;;;;;;;10.03;3.07;;;10.10;99.90;;;;;;5027675;28;21011;-69
2024/02/19 00:35:49;;;;;;;13.90;2.90;;;10.10;99.90;;;;;;5027847;28;20421;-72
2024/02/19 00:38:15;;;;;;;7.07;2.53;;;10.10;99.90;;;;;;5028723;28;20509;-66
2024/02/19 00:40:41;;;;;;;6.70;2.90;;;10.10;99.90;;;;;;5028154;28;20794;-70
2024/02/19 00:43:06;;;;;;;4.50;2.70;;;10.20;99.90;;;;;;5028409;28;20190;-72
2024/02/19 00:45:32;;;;;;;8.27;2.53;;;10.20;99.90;;;;;;5028004;28;20190;-69
2024/02/19 00:47:58;;;;;;;7.03;3.70;;;10.10;99.90;;;;;;5026768;28;20198;-74
2024/02/19 00:50:23;;;;;;;5.67;2.10;;;10.10;99.90;;;;;;5027361;28;20225;-75
2024/02/19 00:52:49;;;;;;;7.47;2.40;;;10.10;99.90;;;;;;5028206;28;20249;-70
2024/02/19 00:55:20;;;;;;;13.23;2.47;;;10.20;99.90;;;;;;5028482;28;20630;-71
2024/02/19 00:57:45;;;;;;;5.00;2.30;;;10.10;99.90;;;;;;5031313;28;20204;-68
2024/02/19 01:00:12;;;;;;;4.93;2.20;;;10.10;99.90;;;;;;5032480;28;20895;-65
2024/02/19 01:02:37;;;;;;;7.83;2.40;;;10.00;99.90;;;;;;5032582;28;20190;-67
2024/02/19 01:05:04;;;;;;;5.70;1.80;;;10.00;99.90;;;;;;5030604;28;20435;-75
2024/02/19 01:07:30;;;;;;;8.90;2.40;;;10.10;99.90;;;;;;5030552;28;20214;-68
2024/02/19 01:09:56;;;;;;;6.90;2.10;;;10.10;99.90;;;;;;5031583;28;20574;-73
2024/02/19 01:12:22;;;;;;;10.67;2.10;;;10.00;99.90;;;;;;5030443;28;20426;-72
2024/02/19 01:14:47;;;;;;;8.70;1.70;;;10.00;99.90;;;;;;5032535;28;20605;-72
2024/02/19 01:17:13;;;;;;;8.57;2.00;;;10.00;99.90;;;;;;5029787;28;20186;-66
2024/02/19 01:19:39;;;;;;;6.63;1.60;;;9.90;99.90;;;;;;5033599;28;20296;-69
2024/02/19 01:22:05;;;;;;;3.87;1.90;;;9.90;99.90;;;;;;5030904;28;20220;-68
2024/02/19 01:24:34;;;;;;;7.40;2.20;;;9.90;99.90;;;;;;5030720;28;20186;-66
2024/02/19 01:26:59;;;;;;;5.60;1.67;;;9.80;99.90;;;;;;5031284;28;20844;-69
2024/02/19 01:29:26;;;;;;;11.90;2.77;;;9.90;99.90;;;;;;5030684;28;20459;-66
2024/02/19 01:31:51;;;;;;;5.27;1.40;;;9.80;99.90;;;;;;5029642;28;20178;-67
2024/02/19 01:34:18;;;;;;;8.07;2.10;;;9.80;99.90;;;;;;5030875;28;20428;-71
2024/02/19 01:36:46;;;;;;;11.20;2.60;;;9.80;99.90;;;;;;5031912;28;20718;-73
2024/02/19 01:39:12;;;;;;;8.77;1.90;;;9.80;99.90;;;;;;5032782;28;20428;-67
2024/02/19 01:41:38;;;;;;;4.67;1.73;;;9.80;99.90;;;;;;5032256;28;20462;-68
2024/02/19 01:44:04;;;;;;;6.80;1.77;;;9.80;99.90;;;;;;5047339;28;21106;-73
2024/02/19 01:46:32;;;;;;;6.90;2.23;;;9.80;99.90;;;;;;5030819;28;20202;-69
2024/02/19 01:48:58;;;;;;;11.77;2.00;;;9.80;99.90;;;;;;5032059;28;21012;-66
2024/02/19 01:51:25;;;;;;;6.70;1.80;;;9.80;99.90;;;;;;5046032;28;20473;-72
2024/02/19 01:53:52;;;;;;;4.90;1.80;;;9.80;99.90;;;;;;5032512;28;20424;-68
2024/02/19 01:56:18;;;;;;;11.00;3.87;;;9.80;99.90;;;;;;5030479;28;20414;-71
2024/02/19 01:58:45;;;;;;;6.50;1.70;;;9.70;99.90;;;;;;5031200;28;20427;-72
2024/02/19 02:01:15;;;;;;;7.63;2.67;;;9.80;99.90;;;;;;5031688;28;20435;-70
2024/02/19 02:03:43;;;;;;;6.53;1.97;;;9.70;99.90;;;;;;5031975;28;20436;-71
2024/02/19 02:06:09;;;;;;;6.53;1.60;;;9.70;99.90;;;;;;5030114;28;20486;-72
2024/02/19 02:08:40;;;;;;;6.47;1.50;;;9.70;99.90;;;;;;5031501;28;20437;-68
2024/02/19 02:11:09;;;;;;;6.70;2.50;;;9.70;99.90;;;;;;5030686;28;20210;-67
2024/02/19 02:13:35;;;;;;;9.03;1.60;;;9.70;99.90;;;;;;5031323;28;20782;-70
2024/02/19 02:16:05;;;;;;;6.47;2.50;;;9.70;99.90;;;;;;5031743;28;20501;-68
2024/02/19 02:18:30;;;;;;;6.43;2.93;;;9.70;99.90;;;;;;5030924;28;20433;-69
2024/02/19 02:20:57;;;;;;;6.50;1.57;;;9.70;99.90;;;;;;5031663;28;20429;-70
2024/02/19 02:23:24;;;;;;;6.03;2.37;;;9.70;99.90;;;;;;5014463;28;21105;-69
2024/02/19 02:25:50;;;;;;;6.67;2.07;;;9.70;99.90;;;;;;5031020;28;20435;-70
2024/02/19 02:28:16;;;;;;;5.03;2.03;;;9.80;99.90;;;;;;5030080;28;20491;-70
2024/02/19 02:30:42;;;;;;;11.27;1.87;;;9.70;99.90;;;;;;5030407;28;20464;-68
2024/02/19 02:33:08;;;;;;;7.37;1.43;;;9.80;99.90;;;;;;5031012;28;20202;-71
2024/02/19 02:35:34;;;;;;;5.77;1.70;;;9.80;99.90;;;;;;5030983;28;20771;-73
2024/02/19 02:38:00;;;;;;;6.73;2.33;;;9.80;99.90;;;;;;5030734;28;20420;-70
2024/02/19 02:40:26;;;;;;;9.53;2.50;;;9.70;99.90;;;;;;5030605;28;20452;-68
2024/02/19 02:42:52;;;;;;;6.27;1.80;;;9.70;99.90;;;;;;5031529;28;20486;-67
2024/02/19 02:45:17;;;;;;;5.83;1.90;;;9.70;99.90;;;;;;5028567;28;20421;-67
2024/02/19 02:47:43;;;;;;;6.67;1.80;;;9.70;99.90;;;;;;5030962;28;20986;-70
2024/02/19 02:50:09;;;;;;;12.33;2.77;;;9.70;99.90;;;;;;5029564;28;20212;-70
2024/02/19 02:52:35;;;;;;;6.57;2.00;;;9.70;99.90;;;;;;5030505;28;20183;-67
2024/02/19 02:55:00;;;;;;;5.80;2.70;;;9.70;99.90;;;;;;5031724;28;20425;-72
2024/02/19 02:57:26;;;;;;;11.20;2.10;;;9.70;99.90;;;;;;5029872;28;20697;-68
2024/02/19 02:59:52;;;;;;;8.50;2.30;;;9.70;99.90;;;;;;5031236;28;20656;-68
2024/02/19 03:02:18;;;;;;;4.63;2.10;;;9.70;99.90;;;;;;5029545;28;20190;-74
2024/02/19 03:04:43;;;;;;;7.60;1.90;;;9.70;99.90;;;;;;5031526;28;20812;-70
2024/02/19 03:07:09;;;;;;;11.40;2.33;;;9.70;99.90;;;;;;5029276;28;20670;-67
2024/02/19 03:09:35;;;;;;;6.43;2.13;;;9.60;99.90;;;;;;5030336;28;20213;-66
2024/02/19 03:12:00;;;;;;;7.10;2.23;;;9.60;99.90;;;;;;5030145;28;20182;-72
2024/02/19 03:14:26;;;;;;;6.37;2.07;;;9.60;99.90;;;;;;5029212;28;20203;-68
2024/02/19 03:16:52;;;;;;;7.13;2.17;;;9.60;99.90;;;;;;5030296;28;20242;-71
2024/02/19 03:19:19;;;;;;;9.47;3.07;;;9.50;99.90;;;;;;5028737;28;20265;-72
2024/02/19 03:21:45;;;;;;;6.17;2.50;;;9.50;99.90;;;;;;5029894;28;20186;-68
2024/02/19 03:24:11;;;;;;;12.87;3.87;;;9.60;99.90;;;;;;5029691;28;20526;-68
2024/02/19 03:26:37;;;;;;;9.33;2.10;;;9.60;99.90;;;;;;5029469;28;20470;-69
2024/02/19 03:29:11;;;;;;;9.70;2.27;;;9.60;99.90;;;;;;5030696;28;20189;-69
2024/02/19 03:31:38;;;;;;;10.13;2.00;;;9.60;99.90;;;;;;5028741;28;20268;-71
2024/02/19 03:34:03;;;;;;;8.77;2.10;;;9.60;99.90;;;;;;5030679;28;20431;-68
2024/02/19 03:36:29;;;;;;;5.43;1.63;;;9.60;99.90;;;;;;5028401;28;20427;-70
2024/02/19 03:38:55;;;;;;;4.10;1.57;;;9.60;99.90;;;;;;5030307;28;20221;-72
2024/02/19 03:41:21;;;;;;;7.10;1.93;;;9.50;99.90;;;;;;5028627;28;20185;-68
2024/02/19 03:43:47;;;;;;;9.57;2.43;;;9.60;99.90;;;;;;5030680;28;20472;-73
2024/02/19 03:46:12;;;;;;;4.57;1.83;;;9.60;99.90;;;;;;5028790;28;20949;-72
2024/02/19 03:48:39;;;;;;;4.17;1.70;;;9.60;99.90;;;;;;5031024;28;21196;-68
2024/02/19 03:51:05;;;;;;;7.70;1.83;;;9.60;99.90;;;;;;5044713;28;20899;-72
2024/02/19 03:53:31;;;;;;;6.47;1.67;;;9.60;99.90;;;;;;5028726;28;20190;-67
2024/02/19 03:55:58;;;;;;;4.97;1.17;;;9.50;99.90;;;;;;5030232;28;20562;-68
2024/02/19 03:58:24;;;;;;;5.67;1.70;;;9.50;99.90;;;;;;5028592;28;20189;-72
2024/02/19 04:00:50;;;;;;;3.07;1.33;;;9.50;99.90;;;;;;5029099;28;20427;-67
2024/02/19 04:03:16;;;;;;;5.97;2.00;;;9.60;99.90;;;;;;5029700;28;20426;-72
2024/02/19 04:05:42;;;;;;;8.43;1.97;;;9.50;99.90;;;;;;5030129;28;20189;-73
2024/02/19 04:08:08;;;;;;;5.67;2.33;;;9.50;99.90;;;;;;5029686;28;20457;-70
2024/02/19 04:10:34;;;;;;;10.63;1.50;;;9.50;99.90;;;;;;5029136;28;21001;-68
2024/02/19 04:12:59;;;;;;;10.90;1.90;;;9.60;99.90;;;;;;5029185;28;21052;-70
2024/02/19 04:15:27;;;;;;;2.13;1.00;;;9.50;99.90;;;;;;5027903;28;20195;-70
2024/02/19 04:17:52;;;;;;;6.27;1.77;;;9.50;99.90;;;;;;5030577;28;20857;-69
2024/02/19 04:20:18;;;;;;;8.93;1.70;;;9.50;99.90;;;;;;5028610;28;20440;-68
2024/02/19 04:22:44;;;;;;;3.70;1.70;;;9.50;99.90;;;;;;5030241;28;20633;-71
2024/02/19 04:25:10;;;;;;;5.67;2.07;;;9.50;99.90;;;;;;5028719;28;20452;-64
2024/02/19 04:27:36;;;;;;;5.83;2.00;;;9.50;99.90;;;;;;5028556;28;20194;-68
2024/02/19 04:30:01;;;;;;;7.87;1.97;;;9.50;99.90;;;;;;5030942;28;20263;-69
2024/02/19 04:32:27;;;;;;;7.33;2.60;;;9.60;99.90;;;;;;5031656;28;20247;-72
2024/02/19 04:34:55;;;;;;;8.67;2.20;;;9.60;99.90;;;;;;5034034;28;20188;-65
2024/02/19 04:37:21;;;;;;;6.93;1.57;;;9.60;99.90;;;;;;5031343;28;20277;-72
2024/02/19 04:39:47;;;;;;;5.83;1.83;;;9.60;99.90;;;;;;5033644;28;20440;-67
2024/02/19 04:42:12;;;;;;;5.10;1.63;;;9.60;99.90;;;;;;5033110;28;20428;-71
2024/02/19 04:44:39;;;;;;;7.90;1.73;;;9.60;99.90;;;;;;5032315;28;20218;-65
2024/02/19 04:47:05;;;;;;;12.00;1.87;;;9.60;99.90;;;;;;5033282;28;20197;-67
2024/02/19 04:49:31;;;;;;;13.90;2.27;;;9.60;99.90;;;;;;5030893;28;20910;-75
2024/02/19 04:51:56;;;;;;;7.83;2.40;;;9.60;99.90;;;;;;5033034;28;20776;-72
2024/02/19 04:54:22;;;;;;;10.90;2.20;;;9.60;99.90;;;;;;5033527;28;20230;-70
2024/02/19 04:56:48;;;;;;;10.60;2.60;;;9.60;99.90;;;;;;5031448;28;20433;-71
2024/02/19 04:59:13;;;;;;;9.77;2.03;;;9.60;99.90;;;;;;5032085;28;20182;-68
2024/02/19 05:01:39;;;;;;;9.87;2.87;;;9.60;99.90;;;;;;5031517;28;20625;-72
2024/02/19 05:04:05;;;;;;;6.73;2.40;;;9.60;99.90;;;;;;5033725;28;20182;-72
2024/02/19 05:06:31;;;;;;;4.90;2.43;;;9.60;99.90;;;;;;5030273;28;20208;-71
2024/02/19 05:08:57;;;;;;;10.00;3.20;;;9.60;99.90;;;;;;5033144;28;20186;-68
2024/02/19 05:11:22;;;;;;;8.50;2.50;;;9.60;99.90;;;;;;5032781;28;20902;-72
2024/02/19 05:13:48;;;;;;;10.13;3.20;;;9.60;99.90;;;;;;5031008;28;20656;-69
2024/02/19 05:16:14;;;;;;;12.30;3.57;;;9.60;99.90;;;;;;5032038;28;20185;-68
2024/02/19 05:18:39;;;;;;;11.10;3.60;;;9.60;99.90;;;;;;5032002;28;20179;-64
2024/02/19 05:21:06;;;;;;;9.40;3.53;;;9.60;99.90;;;;;;5032529;28;20178;-71
2024/02/19 05:23:32;;;;;;;10.43;3.43;;;9.70;99.90;;;;;;5031778;28;20205;-69
2024/02/19 05:25:58;;;;;;;12.77;3.90;;;9.70;99.90;;;;;;5026802;28;20966;-71
2024/02/19 05:28:24;;;;;;;9.87;3.50;;;9.70;99.90;;;;;;5032449;28;20995;-70
2024/02/19 05:30:49;;;;;;;12.00;4.23;;;9.70;99.90;;;;;;5030018;28;20484;-71
2024/02/19 05:33:18;;;;;;;15.30;4.07;;;9.70;99.90;;;;;;5030743;28;20339;-69
2024/02/19 05:35:45;;;;;;;16.70;5.57;;;9.70;99.90;;;;;;5031747;28;20858;-65
2024/02/19 05:38:12;;;;;;;12.50;4.40;;;9.70;99.90;;;;;;5031828;28;21030;-69
2024/02/19 05:40:40;;;;;;;9.97;4.60;;;9.70;99.90;;;;;;5030727;28;21281;-67
2024/02/19 05:43:06;;;;;;;11.90;4.93;;;9.70;99.90;;;;;;5032069;28;20950;-71
2024/02/19 05:45:32;;;;;;;19.03;5.43;;;9.70;99.90;;;;;;5031255;28;20465;-65
2024/02/19 05:47:58;;;;;;;14.83;5.60;;;9.70;99.90;;;;;;5032292;28;20186;-68
2024/02/19 05:50:24;;;;;;;12.30;5.23;;;9.70;99.90;;;;;;5030950;28;20468;-68
2024/02/19 05:52:50;;;;;;;14.43;5.00;;;9.70;99.90;;;;;;5032195;28;20187;-72
2024/02/19 05:55:15;;;;;;;15.50;6.47;;;9.70;99.90;;;;;;5031474;28;21292;-65
2024/02/19 05:57:41;;;;;;;12.43;5.67;;;9.70;99.90;;;;;;5029951;28;20549;-70
2024/02/19 06:00:13;;;;;;;15.90;5.80;;;9.70;99.90;;;;;;5031926;28;20175;-74
2024/02/19 06:02:41;;;;;;;15.17;5.27;;;9.70;99.90;;;;;;5031737;28;21030;-71
2024/02/19 06:05:07;;;;;;;12.30;5.10;;;9.70;99.90;;;;;;5031295;28;20791;-72
2024/02/19 06:07:33;;;;;;;19.83;5.80;;;9.70;99.90;;;;;;5030945;28;20428;-71
2024/02/19 06:09:59;;;;;;;18.50;6.37;;;9.70;99.90;;;;;;5030003;28;20895;-69
2024/02/19 06:12:24;;;;;;;14.50;5.90;;;9.70;99.90;;;;;;5030030;28;20190;-69
2024/02/19 06:14:50;;;;;;;13.17;5.57;;;9.70;99.90;;;;;;5030773;28;20190;-71
2024/02/19 06:17:17;;;;;;;9.70;5.03;;;9.70;99.90;;;;;;5030707;28;20601;-64
2024/02/19 06:19:43;;;;;;;12.33;4.07;;;9.70;99.90;;;;;;5030436;28;20182;-68
2024/02/19 06:22:10;;;;;;;11.93;4.67;;;9.70;99.90;;;;;;5031264;28;20413;-69
2024/02/19 06:24:35;;;;;;;12.53;5.00;;;9.70;99.90;;;;;;5031882;28;20443;-66
2024/02/19 06:27:01;;;;;;;10.30;4.80;;;9.70;99.90;;;;;;5012883;28;20432;-69
2024/02/19 06:29:27;;;;;;;14.77;4.67;;;9.70;99.90;;;;;;5030349;28;20217;-71
2024/02/19 06:31:54;;;;;;;8.53;4.27;;;9.70;99.90;;;;;;5028146;28;20281;-65
2024/02/19 06:34:21;;;;;;;10.00;5.00;;;9.70;99.90;;;;;;5030296;28;20186;-73
2024/02/19 06:36:46;;;;;;;14.30;4.87;;;9.70;99.90;;;;;;5029488;28;20468;-70
2024/02/19 06:39:12;;;;;;;18.97;5.97;;;9.70;99.90;;;;;;5031457;28;20519;-70
2024/02/19 06:41:38;;;;;;;14.77;4.67;;;9.70;99.90;;;;;;5028991;28;20186;-74
2024/02/19 06:44:04;;;;;;;18.37;5.13;;;9.70;99.90;;;;;;5030260;28;20684;-66
2024/02/19 06:46:29;;;;;;;16.60;5.00;;;9.70;99.90;;;;;;5028450;28;20194;-73
2024/02/19 06:48:58;;;;;;;16.47;5.27;;;9.70;99.90;;;;;;5030969;28;21667;-71
2024/02/19 06:51:24;;;;;;;11.43;5.60;;;9.70;99.90;;;;;;5029869;28;20225;-68
2024/02/19 06:53:49;;;;;;;13.10;4.93;;;9.70;99.90;;;;;;5029019;28;20428;-68
2024/02/19 06:56:15;;;;;;;17.63;6.10;;;9.70;99.90;;;;;;5029948;28;20428;-67
2024/02/19 06:58:41;;;;;;;16.23;5.73;;;9.70;99.90;;;;;;5027035;28;20245;-73
2024/02/19 07:01:06;;;;;;;11.47;5.93;;;9.70;99.90;;;;;;5028614;28;20194;-66
2024/02/19 07:03:32;;;;;;;18.70;7.47;;;9.70;99.90;;;;;;5027072;28;20220;-71
2024/02/19 07:05:58;;;;;;;14.20;7.27;;;9.70;99.90;;;;;;5061073;28;20336;-68
2024/02/19 07:08:25;;;;;;;14.73;7.17;;;9.70;99.90;;;;;;5031246;28;20206;-69
2024/02/19 07:10:52;;;;;;;17.97;7.73;;;9.70;99.90;;;;;;5030227;28;21096;-69
2024/02/19 07:13:17;;;;;;;14.23;8.20;;;9.80;99.90;;;;;;5030649;28;20507;-70
2024/02/19 07:15:43;;;;;;;16.50;8.47;;;9.70;99.90;;;;;;5031680;28;20520;-70
2024/02/19 07:18:09;;;;;;;21.40;8.70;;;9.70;99.90;;;;;;5031021;28;20181;-66
2024/02/19 07:20:34;;;;;;;13.77;9.33;;;9.80;99.90;;;;;;5030581;28;21182;-66
2024/02/19 07:23:00;;;;;;;15.63;10.10;;;9.80;99.90;;;;;;5031377;28;20240;-67
2024/02/19 07:25:26;;;;;;;17.90;9.13;;;9.80;99.90;;;;;;5031351;28;20190;-65
2024/02/19 07:27:51;;;;;;;14.67;8.40;;;9.80;99.90;;;;;;5030820;28;20186;-65
2024/02/19 07:30:17;;;;;;;17.10;9.43;;;9.70;99.90;;;;;;5029946;28;20216;-65
2024/02/19 07:32:43;;;;;;;14.70;8.67;;;9.70;99.90;;;;;;5030367;28;20193;-70
2024/02/19 07:35:09;;;;;;;12.13;8.70;;;9.80;99.90;;;;;;5030268;28;20424;-67
2024/02/19 07:37:34;;;;;;;22.20;8.93;;;9.80;99.90;;;;;;5030709;28;20948;-66
2024/02/19 07:40:01;;;;;;;16.43;9.10;;;9.80;99.90;;;;;;5030609;28;20259;-69
2024/02/19 07:42:27;;;;;;;14.10;8.10;;;9.80;99.90;;;;;;5028489;28;20204;-66
2024/02/19 07:44:53;;;;;;;17.40;8.60;;;9.80;99.90;;;;;;5030582;28;21006;-66
2024/02/19 07:47:18;;;;;;;9.97;7.57;;;9.80;99.90;;;;;;5029487;28;20201;-70
2024/02/19 07:49:46;;;;;;;17.10;8.97;;;9.80;99.90;;;;;;5030828;28;20214;-70
2024/02/19 07:52:12;;;;;;;13.00;8.20;;;9.80;99.90;;;;;;5030081;28;20219;-71
2024/02/19 07:54:37;;;;;;;14.13;7.47;;;9.80;99.90;;;;;;5029917;28;21224;-69
2024/02/19 07:57:03;;;;;;;14.57;7.57;;;9.90;99.90;;;;;;5029452;28;20710;-69
2024/02/19 07:59:29;;;;;;;10.73;7.23;;;9.80;99.90;;;;;;5030773;28;20656;-68
2024/02/19 08:01:54;;;;;;;12.90;8.80;;;9.80;99.90;;;;;;5030281;28;20465;-68
2024/02/19 08:04:24;;;;;;;12.27;8.30;;;9.90;99.90;;;;;;5030831;28;20700;-65
2024/02/19 08:06:50;;;;;;;10.90;7.43;;;9.80;99.90;;;;;;5034483;28;20181;-69
2024/02/19 08:09:16;;;;;;;12.67;8.37;;;9.90;99.90;;;;;;5034300;28;20433;-68
2024/02/19 08:11:41;;;;;;;12.70;8.10;;;9.80;99.90;;;;;;5035428;28;20439;-67
2024/02/19 08:14:07;;;;;;;11.90;8.17;;;9.80;99.90;;;;;;5034454;28;20216;-68
2024/02/19 08:16:33;;;;;;;17.43;8.60;;;9.80;99.90;;;;;;5033790;28;21059;-65
2024/02/19 08:18:58;;;;;;;15.67;7.93;;;9.90;99.90;;;;;;5034824;28;20197;-69
2024/02/19 08:21:24;;;;;;;16.77;8.10;;;9.80;99.90;;;;;;5034293;28;20182;-69
2024/02/19 08:23:50;;;;;;;12.00;7.17;;;9.90;99.90;;;;;;5035094;28;20613;-71
2024/02/19 08:26:15;;;;;;;19.37;8.80;;;9.90;99.90;;;;;;5033089;28;20194;-67
2024/02/19 08:28:41;;;;;;;17.20;8.60;;;9.90;99.90;;;;;;5035509;28;20180;-68
2024/02/19 08:31:07;;;;;;;13.30;7.30;;;9.90;99.90;;;;;;5032805;28;20256;-67
2024/02/19 08:33:32;;;;;;;18.23;7.57;;;9.90;99.90;;;;;;5034899;28;20271;-71
2024/02/19 08:36:00;;;;;;;16.50;7.20;;;9.90;99.90;;;;;;5033725;28;20659;-66
2024/02/19 08:38:28;;;;;;;14.17;9.10;;;9.90;99.90;;;;;;5033605;28;20192;-69
2024/02/19 08:40:54;;;;;;;16.53;9.00;;;9.90;99.90;;;;;;5033477;28;20483;-70
2024/02/19 08:43:20;;;;;;;12.93;7.30;;;10.00;99.90;;;;;;5033985;28;20482;-66
2024/02/19 08:45:46;;;;;;;15.63;8.17;;;10.00;99.90;;;;;;5034581;28;20848;-72
2024/02/19 08:48:12;;;;;;;17.40;7.90;;;9.90;99.90;;;;;;5033931;28;20432;-70
2024/02/19 08:50:38;;;;;;;15.40;8.27;;;10.00;99.90;;;;;;5033758;28;20460;-67
2024/02/19 08:53:04;;;;;;;17.90;8.67;;;10.00;99.90;;;;;;5033978;28;20245;-69
2024/02/19 08:55:31;;;;;;;13.63;7.20;;;10.00;99.90;;;;;;5034307;28;21272;-65
2024/02/19 08:57:57;;;;;;;13.40;6.93;;;10.00;99.90;;;;;;5034337;28;20217;-67
2024/02/19 09:00:23;;;;;;;16.87;6.30;;;10.00;99.90;;;;;;5033517;28;20464;-68
2024/02/19 09:02:49;;;;;;;12.50;6.23;;;10.10;99.90;;;;;;5033568;28;20174;-70
2024/02/19 09:05:19;;;;;;;14.30;5.60;;;10.10;99.90;;;;;;5033376;28;20444;-66
2024/02/19 09:07:45;;;;;;;11.73;5.80;;;10.10;99.90;;;;;;5033060;28;20186;-66
2024/02/19 09:10:11;;;;;;;15.00;5.70;;;10.10;99.90;;;;;;5033572;28;20468;-68
2024/02/19 09:12:37;;;;;;;16.53;6.50;;;10.10;99.90;;;;;;5033685;28;20425;-67
2024/02/19 09:15:04;;;;;;;11.43;5.50;;;10.20;99.90;;;;;;5034758;28;20184;-67
2024/02/19 09:17:30;;;;;;;10.90;4.20;;;10.30;99.90;;;;;;5031810;28;20197;-66
2024/02/19 09:19:56;;;;;;;11.10;5.27;;;10.30;99.90;;;;;;5034311;28;20429;-68
2024/02/19 09:22:22;;;;;;;10.17;4.00;;;10.30;99.90;;;;;;5033094;28;20242;-67
2024/02/19 09:24:50;;;;;;;12.30;4.23;;;10.30;99.90;;;;;;5033607;28;20437;-68
2024/02/19 09:27:15;;;;;;;10.83;4.20;;;10.40;99.90;;;;;;5031967;28;20992;-69
2024/02/19 09:29:42;;;;;;;14.20;5.53;;;10.40;99.90;;;;;;5034012;28;20434;-68
2024/02/19 09:32:08;;;;;;;12.27;5.03;;;10.40;99.90;;;;;;5032570;28;20269;-68
2024/02/19 09:34:34;;;;;;;14.93;4.50;;;10.40;99.90;;;;;;5032646;28;20429;-66
2024/02/19 09:37:00;;;;;;;10.97;4.43;;;10.40;99.90;;;;;;5032836;28;20486;-66
2024/02/19 09:39:27;;;;;;;11.67;5.03;;;10.40;99.90;;;;;;5032390;28;20433;-65
2024/02/19 09:41:53;;;;;;;10.37;5.00;;;10.50;99.90;;;;;;5033294;28;20440;-68
2024/02/19 09:44:19;;;;;;;15.23;4.80;;;10.50;99.90;;;;;;5031564;28;20439;-66
2024/02/19 09:46:48;;;;;;;12.03;4.67;;;10.50;99.90;;;;;;5032889;28;20601;-70
2024/02/19 09:49:17;;;;;;;11.70;5.30;;;10.60;99.90;;;;;;5033766;28;20417;-67
2024/02/19 09:51:54;;;;;;;12.70;5.97;;;10.50;99.90;;;;;;5033724;28;21303;-64
2024/02/19 09:54:21;;;;;;;14.33;5.57;;;10.60;99.90;;;;;;5031113;28;20889;-68
2024/02/19 09:56:50;;;;;;;10.07;5.27;;;10.60;99.90;;;;;;5033311;28;20424;-70
2024/02/19 09:59:16;;;;;;;13.90;6.37;;;10.60;99.90;;;;;;5032589;28;20433;-69
2024/02/19 10:01:42;;;;;;;10.73;5.50;;;10.60;99.90;;;;;;5031327;28;20943;-66
2024/02/19 10:04:10;;;;;;;12.00;7.70;;;10.60;99.90;;;;;;5033757;28;20428;-68
2024/02/19 10:06:36;;;;;;;15.40;7.13;;;10.70;99.90;;;;;;5031402;28;20440;-64
2024/02/19 10:09:08;;;;;;;11.53;6.87;;;10.70;99.90;;;;;;5033602;28;20436;-71
2024/02/19 10:11:36;;;;;;;17.23;7.33;;;10.70;99.90;;;;;;5032216;28;20484;-68
2024/02/19 10:14:06;;;;;;;14.10;6.60;;;10.80;99.90;;;;;;5033187;28;20962;-69
2024/02/19 10:16:32;;;;;;;13.57;6.60;;;10.80;99.90;;;;;;5031622;28;20453;-64
2024/02/19 10:19:07;;;;;;;11.87;7.07;;;10.80;99.90;;;;;;5033141;28;20549;-70
2024/02/19 10:21:34;;;;;;;12.00;6.67;;;10.80;99.90;;;;;;5031666;28;20190;-69
2024/02/19 10:24:00;;;;;;;12.03;5.67;;;10.80;99.90;;;;;;5032525;28;20437;-70
2024/02/19 10:26:26;;;;;;;14.10;6.77;;;10.80;99.90;;;;;;5031277;28;20436;-66
2024/02/19 10:28:55;;;;;;;12.63;6.60;;;10.90;99.90;;;;;;5032551;28;20429;-68
2024/02/19 10:31:21;;;;;;;17.13;6.90;;;10.90;99.90;;;;;;5030493;28;21024;-67
2024/02/19 10:33:47;;;;;;;12.80;6.20;;;10.80;99.90;;;;;;5032248;28;20519;-65
2024/02/19 10:36:18;;;;;;;21.10;7.40;;;10.90;99.90;;;;;;5031879;28;20433;-64
2024/02/19 10:38:44;;;;;;;13.60;6.40;;;10.90;99.90;;;;;;5032201;28;20190;-69
2024/02/19 10:41:09;;;;;;;12.13;6.73;;;10.90;99.90;;;;;;5031843;28;20433;-70
2024/02/19 10:43:36;;;;;;;13.63;6.40;;;11.00;99.90;;;;;;5031443;28;20424;-70
2024/02/19 10:46:04;;;;;;;14.23;6.67;;;11.00;99.90;;;;;;5032200;28;20264;-67
2024/02/19 10:48:32;;;;;;;12.13;6.63;;;11.10;99.90;;;;;;5030675;28;20425;-68
2024/02/19 10:51:03;;;;;;;13.00;7.37;;;11.10;99.90;;;;;;5032645;28;21224;-68
2024/02/19 10:53:29;;;;;;;14.23;7.30;;;11.20;99.90;;;;;;5031152;28;20424;-67
2024/02/19 10:56:17;;;;;;;14.13;7.13;;;11.20;99.90;;;;;;5030902;28;20429;-67
2024/02/19 10:59:03;;;;;;;11.50;7.93;;;11.20;99.90;;;;;;5031802;28;21018;-69
2024/02/19 11:01:46;;;;;;;20.80;8.70;;;11.10;99.90;;;;;;5030966;28;20528;-68
2024/02/19 11:04:15;;;;;;;18.77;7.90;;;11.20;99.90;;;;;;5032575;28;20496;-68
2024/02/19 11:06:54;;;;;;;15.57;7.67;;;11.20;99.90;;;;;;5030358;28;20496;-69
2024/02/19 11:09:29;;;;;;;12.87;8.40;;;11.20;99.90;;;;;;5031155;28;20864;-69
2024/02/19 11:11:59;;;;;;;14.00;7.37;;;11.10;99.90;;;;;;5030352;28;20894;-68
2024/02/19 11:14:31;;;;;;;12.90;7.50;;;11.20;99.90;;;;;;5031033;28;20546;-66
2024/02/19 11:16:59;;;;;;;14.13;8.50;;;11.20;99.90;;;;;;5030974;28;20427;-67
2024/02/19 11:19:26;;;;;;;13.27;9.37;;;11.20;99.90;;;;;;5030310;28;20432;-64
2024/02/19 11:22:07;;;;;;;15.03;9.67;;;11.20;99.90;;;;;;5031299;28;20429;-70
2024/02/19 11:24:33;;;;;;;16.00;9.83;;;11.30;99.90;;;;;;5030745;28;20803;-67
2024/02/19 11:27:01;;;;;;;16.10;9.60;;;11.20;99.90;;;;;;5031756;28;20465;-65
2024/02/19 11:29:27;;;;;;;18.47;9.97;;;11.20;99.90;;;;;;5030972;28;20821;-68
2024/02/19 11:32:04;;;;;;;14.57;9.67;;;11.30;99.90;;;;;;5029879;28;20479;-71
2024/02/19 11:34:33;;;;;;;19.07;10.40;;;11.30;99.90;;;;;;5029767;28;20182;-64
2024/02/19 11:37:03;;;;;;;18.57;10.77;;;11.30;99.90;;;;;;5030862;28;20904;-64
2024/02/19 11:39:33;;;;;;;18.70;9.90;;;11.30;99.90;;;;;;5030538;28;20819;-69
2024/02/19 11:41:59;;;;;;;15.50;9.30;;;11.30;99.90;;;;;;5031050;28;20424;-67
2024/02/19 11:44:30;;;;;;;17.37;10.70;;;11.40;99.90;;;;;;5030780;28;20420;-70
2024/02/19 11:46:57;;;;;;;11.90;9.50;;;11.40;99.90;;;;;;5029483;28;20866;-69
2024/02/19 11:49:23;;;;;;;18.30;9.90;;;11.40;99.90;;;;;;5030724;28;20440;-69
2024/02/19 11:51:49;;;;;;;14.07;9.83;;;11.40;99.90;;;;;;5030168;28;20476;-70
2024/02/19 11:54:15;;;;;;;13.13;9.83;;;11.40;99.90;;;;;;5029875;28;20445;-67
2024/02/19 11:56:44;;;;;;;14.47;9.40;;;11.40;99.90;;;;;;5030079;28;20466;-65
2024/02/19 11:59:10;;;;;;;17.67;9.13;;;11.40;99.90;;;;;;5031077;28;20173;-66
2024/02/19 12:01:37;;;;;;;14.73;9.57;;;11.50;99.90;;;;;;5029118;28;20436;-68
2024/02/19 12:04:03;;;;;;;15.33;9.27;;;11.50;99.90;;;;;;5031008;28;20429;-69
2024/02/19 12:06:35;;;;;;;13.77;9.60;;;11.50;99.90;;;;;;5030152;28;20523;-69
2024/02/19 12:09:01;;;;;;;13.40;8.67;;;11.50;99.90;;;;;;5030031;28;20512;-71
2024/02/19 12:11:27;;;;;;;15.10;10.20;;;11.50;99.90;;;;;;5029837;28;20525;-69
2024/02/19 12:13:53;;;;;;;14.20;9.97;;;11.50;99.90;;;;;;5030305;28;20524;-68
2024/02/19 12:16:20;;;;;;;14.50;9.97;;;11.50;99.90;;;;;;5030215;28;20435;-68
2024/02/19 12:18:47;;;;;;;13.83;10.03;;;11.50;99.90;;;;;;5029533;28;20190;-68
2024/02/19 12:21:14;;;;;;;13.10;9.10;;;11.50;99.90;;;;;;5030036;28;20849;-67
2024/02/19 12:23:42;;;;;;;14.93;9.30;;;11.50;99.90;;;;;;5030420;28;20424;-66
2024/02/19 12:26:09;;;;;;;11.87;8.50;;;11.50;99.90;;;;;;5029548;28;20428;-64
2024/02/19 12:28:35;;;;;;;11.13;8.97;;;11.60;99.90;;;;;;5030129;28;21984;-69
2024/02/19 12:31:01;;;;;;;13.40;8.30;;;11.60;99.90;;;;;;5027858;28;20697;-67
2024/02/19 12:33:27;;;;;;;12.40;9.77;;;11.60;99.90;;;;;;5030363;28;20182;-67
2024/02/19 12:35:53;;;;;;;12.30;9.50;;;11.60;99.90;;;;;;5030758;28;20421;-67
2024/02/19 12:38:19;;;;;;;22.13;19.93;;;11.70;99.90;;;;;;5030142;28;20416;-66
2024/02/19 12:40:45;;;;;;;17.73;9.40;;;11.60;99.90;;;;;;5029294;28;20465;-69
2024/02/19 12:43:11;;;;;;;9.70;8.03;;;11.60;99.90;;;;;;5030259;28;20858;-68